createdAt,value
2023-03-03T00:04:33.748Z,15.15
2023-03-03T00:08:00.065Z,14.80
2023-03-03T00:19:27.068Z,16.82
2023-03-03T00:23:00.340Z,17.27
2023-03-03T00:30:21.328Z,15.72
2023-03-03T00:33:57.792Z,14.63
2023-03-03T00:40:55.563Z,14.95
2023-03-03T00:44:20.956Z,14.47
2023-03-03T00:47:46.092Z,14.10
2023-03-03T00:54:29.171Z,13.38
2023-03-03T00:57:37.786Z,13.13
2023-03-03T01:00:56.563Z,13.68
2023-03-03T01:04:25.758Z,14.15
2023-03-03T01:07:53.632Z,13.85
2023-03-03T01:11:41.239Z,15.13
2023-03-03T01:15:05.427Z,13.75
2023-03-03T01:18:29.581Z,13.00
2023-03-03T01:25:23.745Z,13.75
2023-03-03T01:28:55.319Z,13.50
2023-03-03T01:32:12.188Z,13.53
2023-03-03T01:35:40.058Z,12.43
2023-03-03T01:39:02.154Z,13.85
2023-03-03T01:42:23.788Z,12.70
2023-03-03T01:45:50.929Z,13.55
2023-03-03T01:49:47.681Z,12.65
2023-03-03T01:53:03.489Z,13.35
2023-03-03T02:00:10.075Z,17.95
2023-03-03T02:07:22.825Z,14.55
2023-03-03T02:10:42.825Z,14.13
2023-03-03T02:13:59.948Z,14.53
2023-03-03T02:17:25.563Z,13.83
2023-03-03T02:21:11.217Z,13.45
2023-03-03T02:24:53.984Z,13.13
2023-03-03T02:28:30.159Z,12.75
2023-03-03T02:31:56.262Z,13.22
2023-03-03T02:35:27.777Z,12.65
2023-03-03T02:39:30.027Z,12.45
2023-03-03T02:42:55.553Z,12.50
2023-03-03T02:46:50.834Z,12.45
2023-03-03T02:50:18.938Z,13.40
2023-03-03T02:53:52.548Z,13.65
2023-03-03T02:57:13.671Z,13.65
2023-03-03T03:01:02.761Z,14.43
2023-03-03T03:04:31.266Z,13.68
2023-03-03T03:08:03.089Z,13.65
2023-03-03T03:11:46.418Z,13.15
2023-03-03T03:15:24.645Z,13.10
2023-03-03T03:18:48.124Z,12.73
2023-03-03T03:22:06.517Z,13.62
2023-03-03T03:25:20.313Z,12.88
2023-03-03T03:28:38.178Z,13.45
2023-03-03T03:31:57.364Z,12.80
2023-03-03T03:35:36.285Z,13.95
2023-03-03T03:39:02.430Z,12.53
2023-03-03T03:42:26.187Z,13.90
2023-03-03T03:45:42.251Z,14.20
2023-03-03T03:53:06.507Z,13.48
2023-03-03T03:56:25.464Z,13.35
2023-03-03T03:59:43.912Z,13.13
2023-03-03T04:02:56.430Z,13.50
2023-03-03T04:06:39.253Z,13.60
2023-03-03T04:10:08.942Z,13.30
2023-03-03T04:17:12.713Z,13.43
2023-03-03T04:24:37.316Z,13.40
2023-03-03T04:27:58.049Z,13.53
2023-03-03T04:34:38.366Z,16.05
2023-03-03T04:42:30.093Z,22.87
2023-03-03T04:45:54.285Z,19.15
2023-03-03T04:49:47.732Z,16.20
2023-03-03T04:57:36.213Z,17.02
2023-03-03T05:01:08.870Z,15.00
2023-03-03T05:04:28.957Z,15.80
2023-03-03T05:11:56.890Z,14.75
2023-03-03T05:15:19.226Z,16.27
2023-03-03T05:19:01.643Z,18.95
2023-03-03T05:22:31.919Z,22.07
2023-03-03T05:25:58.551Z,21.37
2023-03-03T05:52:01.262Z,16.67
2023-03-03T06:10:03.066Z,21.57
2023-03-03T06:17:37.815Z,17.15
2023-03-03T06:21:48.617Z,15.60
2023-03-03T06:25:27.450Z,15.85
2023-03-03T06:58:55.739Z,25.75
2023-03-03T07:06:54.071Z,18.12
2023-03-03T07:10:31.461Z,17.42
2023-03-03T07:24:53.892Z,23.95
2023-03-03T07:32:26.129Z,22.20
2023-03-03T07:46:38.100Z,19.00
2023-03-03T07:49:57.504Z,18.25
2023-03-03T09:51:03.656Z,15.45
2023-03-03T09:54:56.077Z,16.05
2023-03-03T10:07:03.840Z,17.82
2023-03-03T10:14:25.989Z,16.23
2023-03-03T10:18:12.408Z,15.13
2023-03-03T10:21:59.952Z,14.25
2023-03-03T10:25:59.387Z,14.98
2023-03-03T10:29:47.311Z,17.97
2023-03-03T10:34:08.853Z,14.10
2023-03-03T10:41:52.523Z,13.13
2023-03-03T10:45:21.423Z,12.88
2023-03-03T10:49:26.569Z,18.92
2023-03-03T10:53:07.121Z,13.98
2023-03-03T11:01:24.732Z,17.40
2023-03-03T11:04:52.574Z,18.10
2023-03-03T11:08:31.241Z,13.32
2023-03-03T11:16:37.897Z,13.50
2023-03-03T11:20:19.522Z,13.58
2023-03-03T11:24:06.035Z,13.75
2023-03-03T11:35:03.190Z,13.83
2023-03-03T11:43:38.863Z,15.35
2023-03-03T11:51:38.486Z,13.22
2023-03-03T11:55:41.421Z,13.80
2023-03-03T12:06:46.679Z,14.90
2023-03-03T12:10:53.352Z,14.78
2023-03-03T12:14:45.854Z,17.40
2023-03-03T12:35:49.688Z,15.60
2023-03-03T12:39:41.724Z,13.68
2023-03-03T12:43:30.052Z,14.40
2023-03-03T12:47:05.501Z,15.08
2023-03-03T12:50:39.951Z,27.32
2023-03-03T13:02:14.750Z,19.20
2023-03-03T13:06:21.784Z,20.50
2023-03-03T13:09:53.294Z,17.48
2023-03-03T13:32:19.094Z,18.92
2023-03-03T13:36:11.747Z,23.47
2023-03-03T13:39:36.126Z,25.48
2023-03-03T13:43:19.933Z,22.90
2023-03-03T14:02:28.159Z,20.60
2023-03-03T14:06:09.582Z,25.12
2023-03-03T14:24:42.309Z,21.12
2023-03-03T14:28:15.757Z,18.57
2023-03-03T14:31:39.949Z,17.80
2023-03-03T14:38:59.861Z,20.62
2023-03-03T14:42:22.099Z,21.65
2023-03-03T14:45:58.910Z,21.30
2023-03-03T14:49:15.806Z,17.57
2023-03-03T14:52:55.852Z,17.82
2023-03-03T14:56:54.054Z,17.55
2023-03-03T15:00:41.074Z,17.73
2023-03-03T15:04:32.847Z,20.10
2023-03-03T15:08:16.234Z,21.27
2023-03-03T15:11:44.632Z,19.07
2023-03-03T15:15:24.293Z,20.08
2023-03-03T15:19:45.414Z,19.02
2023-03-03T15:23:11.314Z,19.75
2023-03-03T15:27:11.156Z,22.07
2023-03-03T15:30:49.738Z,20.30
2023-03-03T15:34:34.049Z,19.98
2023-03-03T15:38:26.592Z,17.98
2023-03-03T15:42:17.717Z,18.52
2023-03-03T15:45:58.330Z,19.45
2023-03-03T15:49:38.492Z,19.30
2023-03-03T15:53:52.586Z,22.65
2023-03-03T16:01:41.537Z,20.65
2023-03-03T16:09:22.722Z,20.37
2023-03-03T16:17:01.674Z,19.57
2023-03-03T16:20:44.403Z,19.80
2023-03-03T16:24:17.907Z,21.40
2023-03-03T16:28:13.347Z,20.57
2023-03-03T16:32:01.864Z,20.12
2023-03-03T16:35:58.719Z,26.50
2023-03-03T16:39:35.221Z,22.95
2023-03-03T16:42:57.166Z,21.07
2023-03-03T16:46:44.877Z,20.15
2023-03-03T16:50:07.245Z,22.07
2023-03-03T16:54:00.692Z,42.08
2023-03-03T16:57:33.709Z,24.35
2023-03-03T17:01:23.064Z,20.72
2023-03-03T17:05:05.980Z,21.55
2023-03-03T17:08:50.979Z,25.00
2023-03-03T17:17:15.000Z,23.70
2023-03-03T17:24:58.730Z,21.17
2023-03-03T17:29:02.602Z,22.02
2023-03-03T17:32:37.834Z,21.85
2023-03-03T17:36:04.094Z,21.25
2023-03-03T17:39:38.416Z,20.85
2023-03-03T17:43:40.572Z,21.27
2023-03-03T17:47:08.550Z,19.83
2023-03-03T17:50:54.032Z,20.48
2023-03-03T17:54:54.561Z,19.25
2023-03-03T17:58:52.493Z,21.90
2023-03-03T18:03:04.089Z,21.93
2023-03-03T18:11:10.792Z,20.52
2023-03-03T18:14:46.424Z,22.25
2023-03-03T18:18:32.950Z,24.40
2023-03-03T18:22:37.320Z,24.85
2023-03-03T18:26:25.454Z,23.90
2023-03-03T18:33:27.195Z,24.32
2023-03-03T18:36:59.511Z,25.62
2023-03-03T18:40:36.192Z,24.60
2023-03-03T18:44:05.707Z,29.67
2023-03-03T18:50:50.507Z,24.02
2023-03-03T18:53:46.122Z,21.55
2023-03-03T18:57:16.958Z,23.45
2023-03-03T19:04:18.748Z,31.07
2023-03-03T19:08:07.833Z,24.92
2023-03-03T19:12:12.661Z,25.68
2023-03-03T19:15:59.213Z,25.75
2023-03-03T19:19:36.774Z,25.55
2023-03-03T19:23:11.815Z,27.62
2023-03-03T19:27:00.113Z,24.37
2023-03-03T19:30:52.366Z,25.08
2023-03-03T19:38:21.452Z,24.92
2023-03-03T19:42:10.211Z,23.85
2023-03-03T19:45:55.904Z,23.45
2023-03-03T19:49:32.792Z,24.37
2023-03-03T19:52:55.044Z,23.55
2023-03-03T19:56:37.824Z,24.65
2023-03-03T20:00:07.350Z,22.98
2023-03-03T20:04:05.562Z,23.60
2023-03-03T20:08:01.360Z,22.98
2023-03-03T20:11:43.091Z,23.80
2023-03-03T20:15:45.881Z,24.00
2023-03-03T20:19:29.731Z,23.38
2023-03-03T20:23:40.407Z,22.00
2023-03-03T20:27:20.365Z,23.42
2023-03-03T20:31:14.683Z,21.90
2023-03-03T20:35:10.046Z,22.37
2023-03-03T20:38:41.823Z,22.15
2023-03-03T20:42:25.861Z,22.82
2023-03-03T20:45:58.453Z,22.52
2023-03-03T20:49:49.573Z,23.42
2023-03-03T20:53:16.462Z,21.57
2023-03-03T21:00:30.538Z,21.95
2023-03-03T21:03:58.590Z,24.30
2023-03-03T21:10:34.809Z,21.95
2023-03-03T21:14:04.637Z,21.25
2023-03-03T21:24:41.944Z,19.10
2023-03-03T21:28:06.156Z,20.60
2023-03-03T21:34:58.396Z,21.65
2023-03-03T21:38:16.889Z,21.52
2023-03-03T21:41:45.882Z,21.87
2023-03-03T21:48:44.700Z,21.20
2023-03-03T21:51:53.333Z,20.00
2023-03-03T21:55:11.077Z,21.17
2023-03-03T21:58:30.323Z,21.85
2023-03-03T22:06:02.296Z,21.62
2023-03-03T22:09:28.036Z,22.17
2023-03-03T22:12:52.042Z,20.82
2023-03-03T22:16:19.705Z,21.57
2023-03-03T22:19:50.455Z,21.85
2023-03-03T22:23:10.111Z,22.73
2023-03-03T22:26:33.675Z,21.95
2023-03-03T22:29:53.376Z,23.50
2023-03-03T22:33:18.599Z,24.27
2023-03-03T22:36:33.181Z,25.10
2023-03-03T22:43:35.493Z,24.43
2023-03-03T22:46:49.221Z,21.02
2023-03-03T22:50:09.831Z,20.77
2023-03-03T22:53:27.475Z,18.50
2023-03-03T23:00:15.034Z,17.92
2023-03-03T23:03:34.151Z,19.30
2023-03-03T23:14:01.491Z,18.95
2023-03-03T23:17:27.608Z,18.20
2023-03-03T23:20:53.653Z,17.48
2023-03-03T23:28:01.075Z,16.55
2023-03-03T23:31:17.393Z,19.15
2023-03-03T23:38:13.516Z,17.65
2023-03-03T23:41:32.826Z,18.02
2023-03-03T23:44:49.833Z,16.95
2023-03-03T23:48:11.562Z,18.62
2023-03-03T23:51:39.333Z,17.12
2023-03-03T23:58:16.415Z,17.23
